Time;durP1;ratioP1;P1;durP2;ratioP2;P2;SDS_P1;SDS_P2;PMS_P1;PMS_P2;Temp;Humidity;BMP_temperature;BMP_pressure;BME280_temperature;BME280_humidity;BME280_pressure;Samples;Min_cycle;Max_cycle;Signal;HPM_P1;HPM_P2
2022/05/10 00:00:43;;;;;;;2.20;2.00;;;;;;;9.45;43.30;100108.77;1667212;84;20987;-64
2022/05/10 00:03:11;;;;;;;2.30;1.90;;;;;;;9.45;43.12;100114.08;1666490;85;20885;-66
2022/05/10 00:05:40;;;;;;;2.47;2.02;;;;;;;9.44;43.14;100112.91;1666608;86;20943;-65
2022/05/10 00:08:11;;;;;;;3.10;2.10;;;;;;;9.43;43.32;100111.23;1666993;86;21114;-63
2022/05/10 00:10:38;;;;;;;3.85;2.30;;;;;;;9.42;43.48;100109.06;1666985;85;20987;-65
2022/05/10 00:13:05;;;;;;;2.90;2.08;;;;;;;9.42;43.35;100111.72;1666468;86;21167;-66
2022/05/10 00:15:31;;;;;;;3.47;2.20;;;;;;;9.42;43.06;100114.86;1666936;85;21035;-66
2022/05/10 00:17:59;;;;;;;2.02;1.77;;;;;;;9.40;43.13;100115.50;1671687;85;21027;-64
2022/05/10 00:20:26;;;;;;;2.50;1.87;;;;;;;9.39;43.01;100115.99;1677976;85;21177;-65
2022/05/10 00:22:53;;;;;;;2.00;1.87;;;;;;;9.36;43.07;100110.97;1656807;85;20889;-65
2022/05/10 00:25:27;;;;;;;3.70;1.95;;;;;;;9.35;42.98;100117.28;1671941;85;20876;-66
2022/05/10 00:27:54;;;;;;;3.33;1.85;;;;;;;9.36;42.97;100117.61;1666673;86;21002;-67
2022/05/10 00:30:22;;;;;;;3.85;2.67;;;;;;;9.37;42.93;100107.83;1672759;85;20909;-67
2022/05/10 00:32:48;;;;;;;5.10;2.58;;;;;;;9.35;43.30;100110.64;1674654;85;21467;-68
2022/05/10 00:35:20;;;;;;;3.35;2.10;;;;;;;9.33;43.19;100111.77;1674365;85;21008;-67
2022/05/10 00:37:49;;;;;;;3.20;2.00;;;;;;;9.29;43.38;100108.56;1674196;85;20913;-65
2022/05/10 00:40:20;;;;;;;2.35;1.95;;;;;;;9.27;43.57;100109.21;1673712;85;21052;-63
2022/05/10 00:43:01;;;;;;;2.80;1.80;;;;;;;9.25;43.42;100111.19;1674441;85;20992;-63
2022/05/10 00:45:42;;;;;;;2.08;1.62;;;;;;;9.24;43.46;100109.50;1674464;85;21172;-67
2022/05/10 00:48:49;;;;;;;1.75;1.60;;;;;;;9.22;43.53;100104.84;1674611;85;21446;-68
2022/05/10 00:51:30;;;;;;;3.62;1.82;;;;;;;9.19;43.64;100098.00;1626293;88;21034;-63
2022/05/10 00:54:05;;;;;;;2.40;1.62;;;;;;;9.17;44.07;100099.97;1638262;87;20962;-69
2022/05/10 00:56:47;;;;;;;2.72;1.90;;;;;;;9.15;43.91;100099.27;1645304;86;20979;-67
2022/05/10 00:59:26;;;;;;;3.45;2.17;;;;;;;9.14;44.08;100099.42;1658172;84;21313;-64
2022/05/10 01:02:04;;;;;;;2.33;1.90;;;;;;;9.14;44.28;100096.77;1679310;85;20961;-65
2022/05/10 01:04:39;;;;;;;2.70;1.55;;;;;;;9.13;44.22;100100.39;1697288;83;20998;-66
2022/05/10 01:07:17;;;;;;;1.90;1.52;;;;;;;9.10;44.22;100099.34;1713433;83;20963;-65
2022/05/10 01:09:54;;;;;;;2.45;1.90;;;;;;;9.09;44.46;100092.39;1694545;83;21027;-67
2022/05/10 01:12:29;;;;;;;2.02;1.70;;;;;;;9.05;44.95;100088.34;1673710;85;21257;-68
2022/05/10 01:15:07;;;;;;;4.67;1.77;;;;;;;8.99;45.22;100096.90;1673647;85;21501;-66
2022/05/10 01:17:33;;;;;;;;;;;;;;;8.93;45.15;100089.02;1676465;85;21397;-65
2022/05/10 01:20:00;;;;;;;;;;;;;;;8.90;45.16;100087.14;1678480;85;20645;-64
2022/05/10 01:23:00;;;;;;;2.45;1.65;;;;;;;8.88;45.69;100087.78;1674005;85;20120;-66
2022/05/10 01:25:38;;;;;;;3.50;1.80;;;;;;;8.83;46.10;100086.05;1673215;85;21169;-66
2022/05/10 01:28:16;;;;;;;2.70;1.80;;;;;;;8.73;46.02;100093.20;1674048;85;21006;-62
2022/05/10 01:30:43;;;;;;;3.22;1.85;;;;;;;8.65;45.79;100092.13;1673454;85;21028;-63
2022/05/10 01:33:30;;;;;;;1.80;1.70;;;;;;;8.58;46.11;100091.00;1676860;85;21148;-65
2022/05/10 01:36:20;;;;;;;2.47;2.08;;;;;;;8.49;46.14;100086.56;1674085;85;21028;-67
2022/05/10 01:39:15;;;;;;;4.25;2.45;;;;;;;8.44;46.14;100083.98;1673809;85;21213;-64
2022/05/10 01:41:48;;;;;;;3.62;1.90;;;;;;;8.38;46.07;100090.69;1679347;85;20941;-64
2022/05/10 01:44:31;;;;;;;3.35;1.75;;;;;;;8.37;46.25;100085.54;1627069;85;21012;-64
2022/05/10 01:47:15;;;;;;;2.52;1.55;;;;;;;8.33;46.60;100082.33;1679343;85;20980;-65
2022/05/10 01:49:45;;;;;;;2.47;1.90;;;;;;;8.31;46.58;100078.98;1677083;85;21007;-63
2022/05/10 01:52:42;;;;;;;3.25;2.12;;;;;;;8.29;46.73;100088.06;1673737;85;21242;-64
2022/05/10 01:55:17;;;;;;;2.62;1.98;;;;;;;8.26;46.60;100085.17;1673878;85;24772;-64
2022/05/10 01:57:43;;;;;;;2.98;1.98;;;;;;;8.22;46.61;100089.06;1673805;85;21006;-63
2022/05/10 02:00:19;;;;;;;2.75;1.90;;;;;;;8.15;47.27;100083.98;1677951;85;20877;-66
2022/05/10 02:03:00;;;;;;;2.20;2.00;;;;;;;8.07;47.86;100089.98;1687048;85;21024;-67
2022/05/10 02:05:37;;;;;;;3.02;2.10;;;;;;;7.98;48.45;100085.51;1687313;85;21174;-66
2022/05/10 02:08:12;;;;;;;2.25;1.92;;;;;;;7.87;48.57;100080.34;1682719;85;21059;-66
2022/05/10 02:10:42;;;;;;;2.35;1.75;;;;;;;7.81;48.90;100083.56;1680531;85;20943;-65
2022/05/10 02:13:17;;;;;;;2.85;1.90;;;;;;;7.71;49.14;100080.07;1654621;85;21007;-66
2022/05/10 02:15:57;;;;;;;2.17;1.98;;;;;;;7.60;49.50;100081.98;1681458;85;20939;-65
2022/05/10 02:18:53;;;;;;;1.65;1.47;;;;;;;7.51;49.78;100081.50;1681664;85;21287;-66
2022/05/10 02:21:29;;;;;;;3.05;1.62;;;;;;;7.41;50.15;100074.84;1687085;85;21455;-64
2022/05/10 02:24:04;;;;;;;3.98;2.02;;;;;;;7.33;50.60;100076.00;1687199;85;20988;-64
2022/05/10 02:26:42;;;;;;;4.95;2.45;;;;;;;7.28;50.54;100074.25;1686665;85;20904;-63
2022/05/10 02:29:14;;;;;;;5.12;2.15;;;;;;;7.25;50.53;100077.16;1683055;85;21435;-64
2022/05/10 02:34:38;;;;;;;2.45;2.08;;;;;;;7.20;51.47;100076.24;1687063;85;21529;-65
2022/05/10 02:37:04;;;;;;;4.35;1.90;;;;;;;7.13;51.99;100072.47;1687093;85;21035;-66
2022/05/10 02:39:30;;;;;;;3.30;1.90;;;;;;;7.07;52.30;100082.73;1686406;85;20956;-64
2022/05/10 02:41:59;;;;;;;4.80;2.27;;;;;;;7.00;52.76;100071.86;1687168;84;21001;-65
2022/05/10 02:44:25;;;;;;;3.02;2.20;;;;;;;6.89;53.12;100074.59;1687017;85;21165;-67
2022/05/10 02:46:52;;;;;;;7.95;2.75;;;;;;;6.85;53.46;100071.88;1682687;85;20936;-65
2022/05/10 02:49:18;;;;;;;2.83;2.12;;;;;;;6.81;53.85;100075.73;1682032;85;20908;-64
2022/05/10 02:51:45;;;;;;;3.52;2.33;;;;;;;6.80;54.13;100070.11;1681438;85;21505;-64
2022/05/10 02:54:13;;;;;;;3.33;2.30;;;;;;;6.82;54.36;100070.33;1681549;85;20947;-64
2022/05/10 02:56:40;;;;;;;1.82;1.67;;;;;;;6.85;54.54;100073.20;1680973;85;21280;-64
2022/05/10 02:59:15;;;;;;;2.15;1.75;;;;;;;6.88;54.73;100070.30;1677262;85;20966;-64
2022/05/10 03:01:52;;;;;;;4.08;2.30;;;;;;;6.93;54.87;100067.24;1691571;84;20922;-63
2022/05/10 03:04:18;;;;;;;3.52;2.30;;;;;;;7.01;54.97;100069.58;1694137;84;20990;-64
2022/05/10 03:06:46;;;;;;;3.30;2.50;;;;;;;7.14;54.92;100066.70;1699611;84;20999;-64
2022/05/10 03:09:13;;;;;;;2.12;1.92;;;;;;;7.28;54.86;100069.80;1699505;84;21975;-65
2022/05/10 03:11:40;;;;;;;5.90;2.77;;;;;;;7.45;54.78;100077.58;1699879;84;21390;-65
2022/05/10 03:14:08;;;;;;;2.92;2.10;;;;;;;7.65;54.65;100069.17;1699793;84;20956;-64
2022/05/10 03:16:35;;;;;;;3.62;2.20;;;;;;;7.82;54.30;100072.48;1699412;84;21030;-64
2022/05/10 03:19:02;;;;;;;4.30;2.75;;;;;;;7.98;53.87;100065.64;1699943;84;20900;-64
2022/05/10 03:21:28;;;;;;;3.87;2.42;;;;;;;8.21;53.64;100075.48;1695875;84;21877;-64
2022/05/10 03:23:55;;;;;;;4.45;2.50;;;;;;;8.46;53.30;100069.61;1693971;84;20915;-64
2022/05/10 03:26:25;;;;;;;3.47;2.35;;;;;;;8.74;52.91;100066.52;1698587;84;21008;-64
2022/05/10 03:28:53;;;;;;;6.25;2.10;;;;;;;9.05;52.61;100076.39;1699827;84;21469;-64
2022/05/10 03:31:22;;;;;;;3.62;2.60;;;;;;;9.37;52.13;100069.33;1699325;84;20876;-64
2022/05/10 03:34:53;;;;;;;4.33;2.58;;;;;;;9.68;51.48;100068.86;1699876;84;21151;-64
2022/05/10 03:36:17;;;;;;;3.75;2.30;;;;;;;10.02;50.86;100070.34;1691599;84;21122;-64
2022/05/10 03:38:43;;;;;;;2.98;2.15;;;;;;;10.34;50.35;100067.16;1694166;84;20883;-64
2022/05/10 03:41:10;;;;;;;6.78;2.42;;;;;;;10.70;49.69;100062.58;1694398;84;20990;-64
2022/05/10 03:43:37;;;;;;;7.00;2.52;;;;;;;11.01;49.01;100055.28;1693975;84;21030;-65
2022/05/10 03:46:06;;;;;;;3.85;2.12;;;;;;;11.36;48.38;100049.43;1694033;84;21176;-64
2022/05/10 03:48:33;;;;;;;8.08;3.30;;;;;;;11.72;47.74;100052.22;1694127;84;20903;-65
2022/05/10 03:50:59;;;;;;;5.42;2.58;;;;;;;12.10;47.15;100052.92;1693996;84;20971;-65
2022/05/10 03:53:26;;;;;;;5.35;2.77;;;;;;;12.50;46.28;100053.91;1694362;84;20958;-65
2022/05/10 03:55:54;;;;;;;7.87;2.60;;;;;;;12.83;45.67;100051.51;1697172;84;21007;-65
2022/05/10 03:58:20;;;;;;;3.42;2.42;;;;;;;13.25;44.99;100052.07;1699732;84;21183;-65
2022/05/10 04:00:47;;;;;;;3.65;3.12;;;;;;;13.61;44.34;100047.88;1694047;84;21490;-68
2022/05/10 04:03:13;;;;;;;4.08;3.05;;;;;;;13.97;43.59;100048.17;1679035;85;20920;-64
2022/05/10 04:05:58;;;;;;;19.65;5.67;;;;;;;14.36;42.60;100049.89;1679072;85;20921;-63
2022/05/10 04:08:33;;;;;;;8.90;4.28;;;;;;;14.70;41.76;100047.03;1679638;85;20912;-67
2022/05/10 04:11:03;;;;;;;7.30;4.47;;;;;;;15.15;40.83;100051.89;1679682;85;21163;-65
2022/05/10 04:13:29;;;;;;;13.15;7.05;;;;;;;15.56;40.31;100045.05;1678757;85;20948;-66
2022/05/10 04:15:56;;;;;;;11.03;6.03;;;;;;;16.04;39.35;100044.83;1675177;85;21561;-67
2022/05/10 04:18:23;;;;;;;10.05;5.58;;;;;;;16.55;37.82;100040.16;1673764;85;20952;-65
2022/05/10 04:20:51;;;;;;;10.05;6.30;;;;;;;17.01;36.46;100043.98;1673819;85;20912;-65
2022/05/10 04:23:17;;;;;;;11.73;5.12;;;;;;;17.49;35.53;100041.31;1673830;85;22213;-69
2022/05/10 04:25:43;;;;;;;10.05;5.25;;;;;;;17.97;34.22;100046.95;1674145;85;20901;-66
2022/05/10 04:28:11;;;;;;;7.45;4.50;;;;;;;18.36;32.87;100047.01;1673792;85;20960;-66
2022/05/10 04:30:37;;;;;;;7.35;4.83;;;;;;;18.63;31.96;100052.42;1673853;85;20956;-68
2022/05/10 04:33:04;;;;;;;8.53;4.50;;;;;;;18.78;31.69;100054.37;1676399;85;21012;-63
2022/05/10 04:35:31;;;;;;;11.30;4.70;;;;;;;18.95;31.23;100053.72;1678805;85;21228;-64
2022/05/10 04:38:05;;;;;;;5.85;4.17;;;;;;;19.18;31.19;100050.58;1659917;85;20961;-66
2022/05/10 04:43:18;;;;;;;7.85;3.60;;;;;;;19.69;29.68;100046.03;1679479;85;21491;-67
2022/05/10 04:45:45;;;;;;;7.60;3.95;;;;;;;19.77;29.62;100048.16;1679176;85;20972;-67
2022/05/10 04:48:11;;;;;;;5.83;4.00;;;;;;;20.03;29.30;100048.84;1679443;85;21265;-64
2022/05/10 04:50:38;;;;;;;5.80;4.22;;;;;;;20.36;28.89;100041.91;1679295;85;20960;-66
2022/05/10 04:53:05;;;;;;;7.40;3.92;;;;;;;20.65;28.38;100044.47;1674889;85;21061;-65
2022/05/10 04:55:31;;;;;;;5.17;3.45;;;;;;;20.96;28.36;100049.78;1674021;85;20948;-65
2022/05/10 04:57:58;;;;;;;7.65;3.87;;;;;;;21.30;27.83;100045.70;1673622;85;21003;-65
2022/05/10 05:00:26;;;;;;;7.12;3.30;;;;;;;21.64;27.38;100051.00;1674297;85;22204;-65
2022/05/10 05:02:52;;;;;;;5.17;3.40;;;;;;;21.83;27.01;100046.66;1679334;85;20909;-65
2022/05/10 05:05:18;;;;;;;6.60;3.35;;;;;;;22.10;26.47;100048.50;1677986;85;21506;-65
2022/05/10 05:07:46;;;;;;;8.88;3.55;;;;;;;22.70;25.53;100044.64;1680779;84;20968;-66
2022/05/10 05:10:12;;;;;;;8.43;3.47;;;;;;;22.70;25.53;100044.64;1689534;84;20920;-66
2022/05/10 05:12:39;;;;;;;5.03;3.10;;;;;;;23.00;25.44;100045.02;1684465;84;21553;-70
2022/05/10 05:15:10;;;;;;;5.78;4.40;;;;;;;23.25;24.94;100045.07;1683033;85;21572;-67
2022/05/10 05:17:38;;;;;;;8.85;4.85;;;;;;;23.22;24.50;100045.55;1706157;84;20984;-66
2022/05/10 05:20:06;;;;;;;6.85;3.27;;;;;;;23.15;24.43;100042.11;1707704;84;20980;-67
2022/05/10 05:22:33;;;;;;;7.37;3.37;;;;;;;23.28;24.36;100045.92;1707954;84;20929;-65
2022/05/10 05:25:00;;;;;;;4.28;2.92;;;;;;;23.69;23.87;100042.73;1707770;84;21190;-65
2022/05/10 05:27:26;;;;;;;6.85;3.67;;;;;;;24.04;23.40;100046.11;1707817;84;20992;-67
2022/05/10 05:29:53;;;;;;;8.53;3.92;;;;;;;24.30;23.29;100047.44;1666292;84;21000;-66
2022/05/10 05:32:22;;;;;;;5.35;3.62;;;;;;;24.55;22.93;100049.21;1675388;84;20971;-66
2022/05/10 05:34:50;;;;;;;6.00;4.58;;;;;;;24.77;22.68;100047.37;1675848;85;20969;-65
2022/05/10 05:37:35;;;;;;;7.15;4.28;;;;;;;24.80;22.82;100044.19;1678857;85;21899;-65
2022/05/10 05:40:10;;;;;;;10.72;3.62;;;;;;;24.93;22.63;100047.09;1674625;85;20880;-69
2022/05/10 05:42:37;;;;;;;5.28;3.62;;;;;;;25.06;22.58;100042.12;1676921;85;20921;-66
2022/05/10 05:45:06;;;;;;;7.10;3.75;;;;;;;25.31;22.14;100041.66;1678675;85;21052;-66
2022/05/10 05:47:33;;;;;;;5.58;3.00;;;;;;;25.53;22.00;100045.23;1678274;85;21170;-63
2022/05/10 05:50:03;;;;;;;6.03;3.35;;;;;;;25.86;21.94;100046.16;1678604;85;21180;-65
2022/05/10 05:52:30;;;;;;;4.80;3.10;;;;;;;26.19;21.38;100043.25;1679597;84;21055;-69
2022/05/10 05:54:57;;;;;;;5.33;2.67;;;;;;;26.49;21.33;100042.14;1696997;84;20948;-67
2022/05/10 05:57:24;;;;;;;4.62;2.35;;;;;;;26.81;20.82;100038.88;1687868;84;20981;-65
2022/05/10 05:59:56;;;;;;;3.95;2.75;;;;;;;27.10;20.46;100038.50;1675830;85;20971;-65
2022/05/10 06:02:23;;;;;;;5.58;2.70;;;;;;;27.30;20.00;100048.16;1673096;84;21337;-67
2022/05/10 06:04:50;;;;;;;6.05;2.33;;;;;;;27.41;19.58;100043.06;1673158;85;21509;-67
2022/05/10 06:07:16;;;;;;;3.60;2.40;;;;;;;27.34;19.51;100042.45;1673603;85;21027;-66
2022/05/10 06:09:44;;;;;;;3.83;2.55;;;;;;;27.50;19.42;100036.01;1676393;85;21072;-66
2022/05/10 06:12:14;;;;;;;2.62;2.35;;;;;;;27.81;19.38;100035.56;1678987;85;21032;-65
2022/05/10 06:14:40;;;;;;;7.08;2.50;;;;;;;28.13;19.08;100030.17;1678629;85;21145;-71
2022/05/10 06:17:07;;;;;;;3.42;2.65;;;;;;;28.16;18.52;100033.73;1677837;85;21048;-68
2022/05/10 06:19:40;;;;;;;4.12;2.35;;;;;;;28.13;18.79;100031.54;1689084;83;21391;-68
2022/05/10 06:22:04;;;;;;;2.50;2.27;;;;;;;28.27;18.69;100025.53;1675416;82;21089;-67
2022/05/10 06:24:31;;;;;;;4.20;2.90;;;;;;;28.46;18.47;100021.17;1669600;85;20939;-69
2022/05/10 06:26:58;;;;;;;7.15;2.60;;;;;;;28.61;18.22;100022.52;1673476;85;21321;-66
2022/05/10 06:29:24;;;;;;;5.35;2.20;;;;;;;28.77;18.26;100017.34;1678009;84;20986;-67
2022/05/10 06:31:51;;;;;;;5.28;2.60;;;;;;;29.15;17.86;100015.31;1678576;85;21022;-72
2022/05/10 06:34:18;;;;;;;5.75;2.35;;;;;;;29.53;17.38;100014.38;1678282;85;20960;-68
2022/05/10 06:36:45;;;;;;;3.60;2.37;;;;;;;29.85;16.64;100008.73;1676826;85;21593;-69
2022/05/10 06:39:11;;;;;;;3.55;2.10;;;;;;;30.14;16.58;100007.44;1677236;85;21148;-66
2022/05/10 06:41:38;;;;;;;4.60;2.83;;;;;;;30.51;16.18;100013.22;1675499;85;21007;-68
2022/05/10 06:44:05;;;;;;;4.30;2.52;;;;;;;30.88;15.68;100007.64;1675744;85;21055;-67
2022/05/10 06:46:34;;;;;;;6.10;2.42;;;;;;;31.22;15.47;100005.64;1676889;85;21086;-67
2022/05/10 06:49:02;;;;;;;3.05;2.77;;;;;;;31.49;15.46;100005.89;1678512;85;21101;-68
2022/05/10 06:51:28;;;;;;;5.25;3.15;;;;;;;31.78;14.85;100001.64;1688168;84;21113;-72
2022/05/10 06:53:55;;;;;;;5.50;3.12;;;;;;;31.96;14.08;100002.20;1686263;84;21270;-68
2022/05/10 06:56:22;;;;;;;5.37;3.30;;;;;;;32.09;13.90;100000.66;1673596;85;20963;-70
2022/05/10 06:58:49;;;;;;;3.85;2.60;;;;;;;32.25;13.61;99995.96;1677360;85;21081;-69
2022/05/10 07:01:16;;;;;;;3.92;3.17;;;;;;;32.50;13.38;99995.28;1678858;85;21118;-69
2022/05/10 07:03:45;;;;;;;3.45;2.77;;;;;;;32.71;13.25;99996.03;1686563;85;21171;-69
2022/05/10 07:06:13;;;;;;;3.75;3.33;;;;;;;32.83;13.07;99989.45;1683920;84;21071;-68
2022/05/10 07:08:41;;;;;;;4.45;2.90;;;;;;;32.95;12.61;99988.97;1704167;83;21004;-69
2022/05/10 07:11:07;;;;;;;6.25;2.77;;;;;;;33.09;12.65;99984.30;1680218;85;21521;-68
2022/05/10 07:13:34;;;;;;;3.92;2.50;;;;;;;33.41;12.20;99988.88;1681382;85;21070;-68
2022/05/10 07:16:02;;;;;;;2.87;2.10;;;;;;;33.72;11.98;99986.28;1684491;85;21261;-68
2022/05/10 07:18:29;;;;;;;3.90;2.30;;;;;;;33.91;11.51;99990.53;1681066;85;20975;-70
2022/05/10 07:20:56;;;;;;;3.00;1.90;;;;;;;33.88;10.93;99984.81;1680818;85;21125;-67
2022/05/10 07:23:27;;;;;;;4.80;2.27;;;;;;;33.85;10.91;99982.67;1682979;85;21009;-66
2022/05/10 07:25:53;;;;;;;2.10;1.90;;;;;;;33.79;11.04;99976.45;1684204;85;20962;-71
2022/05/10 07:28:20;;;;;;;6.92;2.40;;;;;;;33.87;11.19;99976.30;1687567;83;21107;-69
2022/05/10 07:30:47;;;;;;;2.80;2.25;;;;;;;33.92;11.10;99979.73;1683182;83;21564;-68
2022/05/10 07:33:18;;;;;;;3.45;2.50;;;;;;;33.99;10.87;99977.38;1681139;85;21575;-69
2022/05/10 07:38:30;;;;;;;6.13;1.30;;;;;;;34.40;10.22;99966.72;1685243;83;21149;-72
2022/05/10 07:40:58;;;;;;;1.45;1.30;;;;;;;34.39;10.07;99969.25;1681732;85;21876;-68
2022/05/10 07:43:25;;;;;;;2.08;1.52;;;;;;;34.48;10.12;99971.48;1685712;85;21034;-68
2022/05/10 07:45:54;;;;;;;2.40;1.60;;;;;;;34.62;10.03;99979.16;1686602;85;20964;-68
2022/05/10 07:48:21;;;;;;;3.90;1.70;;;;;;;34.76;9.76;99975.72;1686063;85;21013;-68
2022/05/10 07:50:50;;;;;;;5.53;1.70;;;;;;;34.84;9.76;99967.22;1686824;85;21099;-70
2022/05/10 07:53:16;;;;;;;2.60;1.30;;;;;;;34.84;9.61;99965.83;1684281;85;21463;-66
2022/05/10 07:55:44;;;;;;;1.22;1.12;;;;;;;34.95;10.01;99963.86;1680954;85;20963;-68
2022/05/10 07:58:11;;;;;;;2.47;1.30;;;;;;;35.18;9.48;99960.46;1681467;85;21006;-69
2022/05/10 08:00:38;;;;;;;3.70;1.35;;;;;;;35.08;9.44;99956.05;1681662;83;21073;-72
2022/05/10 08:03:16;;;;;;;1.70;1.45;;;;;;;35.09;9.56;99952.16;1684951;83;21078;-71
2022/05/10 08:05:43;;;;;;;2.45;1.20;;;;;;;35.22;9.57;99952.58;1698433;84;21171;-68
2022/05/10 08:08:11;;;;;;;1.27;1.17;;;;;;;35.29;9.28;99946.03;1700625;84;21047;-67
2022/05/10 08:10:41;;;;;;;2.77;1.70;;;;;;;35.21;9.33;99948.77;1671756;85;21565;-70
2022/05/10 08:13:14;;;;;;;2.55;1.30;;;;;;;35.19;9.43;99944.95;1674491;85;21522;-71
2022/05/10 08:15:40;;;;;;;1.32;1.20;;;;;;;35.41;9.54;99948.74;1677922;85;21076;-67
2022/05/10 08:18:07;;;;;;;3.10;1.32;;;;;;;35.59;9.23;99944.89;1678993;85;21956;-69
2022/05/10 08:20:34;;;;;;;1.82;1.30;;;;;;;35.47;9.04;99942.72;1675278;85;21019;-68
2022/05/10 08:23:00;;;;;;;2.22;1.40;;;;;;;35.46;9.12;99952.73;1673418;85;21442;-68
2022/05/10 08:25:27;;;;;;;3.30;1.00;;;;;;;35.72;9.34;99943.92;1673649;85;21087;-67
2022/05/10 08:27:53;;;;;;;1.90;1.25;;;;;;;36.17;9.26;99940.23;1673146;85;21047;-69
2022/05/10 08:30:20;;;;;;;2.60;1.17;;;;;;;36.59;8.79;99942.12;1675420;85;21330;-70
2022/05/10 08:32:46;;;;;;;1.62;0.90;;;;;;;36.73;8.39;99941.91;1679118;85;21024;-68
2022/05/10 08:35:13;;;;;;;3.45;1.32;;;;;;;36.83;8.62;99935.42;1671473;83;20957;-68
2022/05/10 08:37:40;;;;;;;2.98;1.32;;;;;;;37.10;8.54;99931.41;1688975;83;21040;-70
2022/05/10 08:40:11;;;;;;;1.72;1.20;;;;;;;37.12;8.19;99929.11;1690996;84;21558;-69
2022/05/10 08:42:43;;;;;;;0.65;0.60;;;;;;;36.95;8.34;99930.01;1658314;85;21166;-68
2022/05/10 08:45:10;;;;;;;2.17;1.32;;;;;;;36.78;8.58;99931.45;1677399;84;21004;-67
2022/05/10 08:47:36;;;;;;;1.27;1.10;;;;;;;36.77;8.39;99923.45;1679372;85;20952;-64
2022/05/10 08:50:06;;;;;;;2.15;1.15;;;;;;;36.80;8.14;99922.80;1678950;85;21015;-70
2022/05/10 08:52:40;;;;;;;1.12;0.82;;;;;;;36.85;9.62;99928.16;1678396;85;20905;-67
2022/05/10 08:55:08;;;;;;;1.98;1.37;;;;;;;37.18;8.55;99923.59;1673746;85;21616;-67
2022/05/10 08:57:55;;;;;;;2.45;1.02;;;;;;;37.57;8.20;99918.23;1673594;85;21030;-68
2022/05/10 09:00:44;;;;;;;2.40;1.37;;;;;;;37.97;8.05;99910.22;1673754;85;20883;-67
2022/05/10 09:03:40;;;;;;;4.22;1.37;;;;;;;38.31;7.83;99921.01;1678315;85;21014;-68
2022/05/10 09:06:16;;;;;;;;;;;;;;;38.32;7.56;99920.44;1683968;85;21029;-67
2022/05/10 09:09:11;;;;;;;1.03;0.90;;;;;;;38.14;7.68;99921.17;1672313;84;21172;-67
2022/05/10 09:12:01;;;;;;;1.07;1.00;;;;;;;38.36;7.84;99914.41;1681308;85;21500;-70
2022/05/10 09:14:35;;;;;;;4.25;1.10;;;;;;;38.67;7.54;99917.47;1681512;85;21002;-69
2022/05/10 09:17:03;;;;;;;3.67;1.22;;;;;;;39.07;7.57;99904.54;1681395;85;20963;-68
2022/05/10 09:19:40;;;;;;;1.65;1.30;;;;;;;39.29;7.47;99909.63;1676821;85;20966;-69
2022/05/10 09:22:50;;;;;;;1.30;1.05;;;;;;;39.46;7.06;99911.34;1681314;85;21171;-69
2022/05/10 09:25:33;;;;;;;1.65;0.98;;;;;;;39.49;7.09;99912.84;1681193;85;20958;-69
2022/05/10 09:28:16;;;;;;;1.32;0.75;;;;;;;39.50;6.89;99901.92;1681331;85;20912;-67
2022/05/10 09:34:45;;;;;;;1.60;0.78;;;;;;;39.39;6.60;99900.00;1667733;85;20923;-69
2022/05/10 09:36:10;;;;;;;0.68;0.60;;;;;;;39.18;7.01;99897.92;1681596;85;21290;-65
2022/05/10 09:38:46;;;;;;;0.70;0.70;;;;;;;39.21;6.76;99897.26;1681538;85;21161;-71
2022/05/10 09:41:33;;;;;;;2.42;1.00;;;;;;;39.32;6.67;99897.80;1681509;85;20911;-68
2022/05/10 09:44:16;;;;;;;2.20;1.00;;;;;;;39.63;6.57;99883.84;1681414;85;20989;-70
2022/05/10 09:46:42;;;;;;;3.22;0.90;;;;;;;39.76;6.35;99882.63;1679674;85;21014;-68
2022/05/10 09:49:30;;;;;;;1.80;0.80;;;;;;;39.69;6.32;99873.48;1672199;84;21169;-68
2022/05/10 09:51:58;;;;;;;2.42;0.80;;;;;;;39.56;6.13;99871.06;1671405;84;20970;-68
2022/05/10 09:54:40;;;;;;;4.35;0.82;;;;;;;39.29;6.20;99874.06;1672230;85;20979;-71
2022/05/10 09:57:13;;;;;;;3.25;1.27;;;;;;;39.18;6.35;99869.56;1665088;86;21011;-71
2022/05/10 09:59:46;;;;;;;1.70;0.88;;;;;;;39.21;6.27;99872.22;1665000;85;20919;-69
2022/05/10 10:02:33;;;;;;;2.62;1.00;;;;;;;39.13;6.06;99869.77;1665007;85;21152;-69
2022/05/10 10:05:00;;;;;;;5.95;1.32;;;;;;;38.58;6.31;99862.58;1608370;88;20914;-70
2022/05/10 10:07:28;;;;;;;3.87;0.98;;;;;;;36.34;7.33;99867.63;1653082;86;21059;-73
2022/05/10 10:09:58;;;;;;;3.30;1.25;;;;;;;34.69;8.09;99867.05;1665077;86;21013;-70
2022/05/10 10:12:44;;;;;;;2.45;1.15;;;;;;;33.71;8.38;99872.39;1664806;85;20978;-71
2022/05/10 10:15:38;;;;;;;2.27;0.95;;;;;;;32.85;8.90;99862.44;1664806;86;21204;-68
2022/05/10 10:18:09;;;;;;;2.37;0.90;;;;;;;31.94;9.35;99864.68;1664782;86;20997;-70
2022/05/10 10:20:55;;;;;;;5.22;1.20;;;;;;;30.90;9.71;99861.21;1665237;85;21034;-67
2022/05/10 10:23:27;;;;;;;;;;;;;;;30.05;9.92;99856.11;1667648;86;20983;-69
2022/05/10 10:25:57;;;;;;;1.40;1.00;;;;;;;29.32;10.81;99857.48;1664974;85;20132;-68
2022/05/10 10:28:36;;;;;;;2.58;1.22;;;;;;;28.80;11.21;99858.00;1664892;86;21176;-67
2022/05/10 10:31:16;;;;;;;2.20;1.30;;;;;;;28.10;11.66;99855.71;1664828;86;20926;-67
2022/05/10 10:34:02;;;;;;;3.22;1.20;;;;;;;27.44;11.90;99851.30;1664793;85;20980;-66
2022/05/10 10:36:50;;;;;;;1.05;1.02;;;;;;;27.01;12.42;99844.33;1664990;86;20995;-69
2022/05/10 10:39:29;;;;;;;1.80;1.17;;;;;;;26.61;12.77;99844.98;1664864;86;21065;-67
2022/05/10 10:42:17;;;;;;;6.42;1.10;;;;;;;26.29;13.06;99841.53;1665031;84;21122;-69
2022/05/10 10:44:47;;;;;;;3.77;1.12;;;;;;;26.03;13.21;99839.69;1664201;85;20907;-67
2022/05/10 10:47:28;;;;;;;2.98;1.22;;;;;;;25.72;13.52;99839.48;1665071;86;21500;-67
2022/05/10 10:50:24;;;;;;;1.85;0.98;;;;;;;25.43;13.78;99835.37;1664935;86;21033;-68
2022/05/10 10:52:54;;;;;;;2.37;1.10;;;;;;;25.17;14.06;99836.20;1664932;86;20911;-68
2022/05/10 10:55:23;;;;;;;2.35;1.40;;;;;;;24.86;14.19;99831.50;1664853;85;21903;-68
2022/05/10 10:58:31;;;;;;;2.58;1.05;;;;;;;24.58;15.02;99816.97;1664758;86;21465;-68
2022/05/10 11:01:26;;;;;;;4.05;1.25;;;;;;;24.34;15.03;99822.39;1664833;85;21002;-68
2022/05/10 11:04:15;;;;;;;2.08;1.47;;;;;;;24.19;15.23;99814.56;1682934;84;20958;-68
2022/05/10 11:06:52;;;;;;;1.40;1.10;;;;;;;24.15;15.16;99808.80;1668396;86;21409;-68
2022/05/10 11:09:42;;;;;;;3.30;1.45;;;;;;;24.10;15.48;99800.58;1668246;84;21927;-69
2022/05/10 11:12:31;;;;;;;1.37;1.10;;;;;;;24.13;15.29;99800.08;1668190;86;20970;-70
2022/05/10 11:15:32;;;;;;;3.10;1.37;;;;;;;24.17;15.53;99796.33;1668246;84;20955;-67
2022/05/10 11:18:25;;;;;;;3.20;1.47;;;;;;;24.19;15.83;99793.65;1668507;86;20970;-68
2022/05/10 11:21:14;;;;;;;1.67;1.10;;;;;;;24.01;15.60;99795.80;1668217;85;20864;-70
2022/05/10 11:24:15;;;;;;;2.75;1.10;;;;;;;23.81;15.76;99793.58;1668331;85;21266;-68
2022/05/10 11:26:48;;;;;;;2.60;1.10;;;;;;;23.68;16.05;99783.05;1668230;85;20899;-65
2022/05/10 11:29:53;;;;;;;1.02;0.80;;;;;;;23.61;16.02;99775.09;1668230;86;21003;-69
2022/05/10 11:32:48;;;;;;;1.50;0.88;;;;;;;23.53;15.82;99776.03;1667645;85;21090;-67
2022/05/10 11:35:34;;;;;;;5.80;1.12;;;;;;;23.37;16.07;99770.89;1668577;85;21445;-69
2022/05/10 11:38:16;;;;;;;3.40;1.20;;;;;;;23.29;16.24;99773.97;1668385;86;21441;-68
2022/05/10 11:41:18;;;;;;;1.95;1.20;;;;;;;23.22;16.54;99766.00;1683082;84;20934;-66
2022/05/10 11:44:26;;;;;;;3.67;1.00;;;;;;;23.19;16.53;99769.20;1666552;84;21535;-67
2022/05/10 11:47:26;;;;;;;1.65;1.40;;;;;;;23.12;16.68;99757.69;1709105;84;21071;-67
2022/05/10 11:50:24;;;;;;;2.62;0.98;;;;;;;22.98;16.96;99759.58;1656860;86;21468;-68
2022/05/10 11:53:06;;;;;;;3.58;1.32;;;;;;;22.88;16.93;99754.80;1709235;84;21163;-67
2022/05/10 11:55:54;;;;;;;2.27;1.10;;;;;;;22.90;17.18;99754.02;1666414;86;20879;-69
2022/05/10 11:58:23;;;;;;;1.62;1.10;;;;;;;22.92;17.00;99749.16;1709065;84;21002;-67
2022/05/10 12:00:56;;;;;;;2.72;1.25;;;;;;;22.97;17.02;99749.81;1666585;86;20994;-68
2022/05/10 12:03:40;;;;;;;2.20;1.27;;;;;;;22.99;17.17;99746.31;1675246;85;21023;-67
2022/05/10 12:06:28;;;;;;;4.03;1.07;;;;;;;22.99;17.02;99746.31;1669424;85;21155;-67
2022/05/10 12:09:02;;;;;;;2.42;1.10;;;;;;;23.00;16.97;99739.27;1674439;85;20916;-68
2022/05/10 12:11:37;;;;;;;2.08;0.85;;;;;;;23.00;16.67;99733.02;1674498;85;20967;-67
2022/05/10 12:22:21;;;;;;;5.05;1.27;;;;;;;22.79;17.06;99722.91;1626390;85;21031;-67